Time,TemperatureF,DewpointF,PressureIn,WindDirection,WindDirectionDegrees,WindSpeedMPH,WindSpeedGustMPH,Humidity,HourlyPrecipIn,Conditions,Clouds,dailyrainin,SolarRadiationWatts/m^2,SoftwareType,DateUTC
2013-06-12 00:22:00,53.0,18.0,-100.00,ENE,69,3.0,4.0,25,0.00,,,-99.99,0.000000,,2013-06-12 06:22:00,
2013-06-12 00:32:00,53.0,18.0,-100.00,ENE,69,3.0,4.0,25,0.00,,,-99.99,0.000000,,2013-06-12 06:32:00,
2013-06-12 00:42:00,53.0,18.0,-100.00,ENE,69,3.0,4.0,25,0.00,,,-99.99,0.000000,,2013-06-12 06:42:00,
2013-06-12 00:52:00,53.0,18.0,-100.00,ENE,69,3.0,4.0,25,0.00,,,-99.99,0.000000,,2013-06-12 06:52:00,
2013-06-12 01:22:00,50.0,20.0,-100.00,East,86,3.0,7.0,30,0.00,,,0.00,0.000000,,2013-06-12 07:22:00,
2013-06-12 01:33:00,50.0,20.0,-100.00,East,86,3.0,7.0,30,0.00,,,0.00,0.000000,,2013-06-12 07:33:00,
2013-06-12 01:43:00,50.0,20.0,-100.00,East,86,3.0,7.0,30,0.00,,,0.00,0.000000,,2013-06-12 07:43:00,
2013-06-12 01:53:00,50.0,20.0,-100.00,East,86,3.0,7.0,30,0.00,,,0.00,0.000000,,2013-06-12 07:53:00,
2013-06-12 02:22:00,48.0,20.0,-100.00,East,81,3.0,5.0,33,0.00,,,0.00,0.000000,,2013-06-12 08:22:00,
2013-06-12 02:33:00,48.0,20.0,-100.00,East,81,3.0,5.0,33,0.00,,,0.00,0.000000,,2013-06-12 08:33:00,
2013-06-12 02:43:00,48.0,20.0,-100.00,East,81,3.0,5.0,33,0.00,,,0.00,0.000000,,2013-06-12 08:43:00,
2013-06-12 02:53:00,48.0,20.0,-100.00,East,81,3.0,5.0,33,0.00,,,0.00,0.000000,,2013-06-12 08:53:00,
2013-06-12 03:22:00,44.0,22.0,-100.00,ENE,73,5.0,7.0,41,0.00,,,0.00,0.000000,,2013-06-12 09:22:00,
2013-06-12 03:33:00,44.0,22.0,-100.00,ENE,73,5.0,7.0,41,0.00,,,0.00,0.000000,,2013-06-12 09:33:00,
2013-06-12 03:42:00,44.0,22.0,-100.00,ENE,73,5.0,7.0,41,0.00,,,0.00,0.000000,,2013-06-12 09:42:00,
2013-06-12 03:53:00,44.0,22.0,-100.00,ENE,73,5.0,7.0,41,0.00,,,0.00,0.000000,,2013-06-12 09:53:00,
2013-06-12 04:23:00,44.0,22.0,-100.00,ENE,78,6.0,8.0,42,0.00,,,-99.99,0.000000,,2013-06-12 10:23:00,
2013-06-12 04:33:00,44.0,22.0,-100.00,ENE,78,6.0,8.0,42,0.00,,,-99.99,0.000000,,2013-06-12 10:33:00,
2013-06-12 04:43:00,44.0,22.0,-100.00,ENE,78,6.0,8.0,42,0.00,,,-99.99,0.000000,,2013-06-12 10:43:00,
2013-06-12 04:53:00,44.0,22.0,-100.00,ENE,78,6.0,8.0,42,0.00,,,-99.99,0.000000,,2013-06-12 10:53:00,
2013-06-12 05:24:00,41.0,24.0,-100.00,East,79,8.0,12.0,50,0.00,,,0.00,0.000000,,2013-06-12 11:24:00,
2013-06-12 05:33:00,41.0,24.0,-100.00,East,79,8.0,12.0,50,0.00,,,0.00,0.000000,,2013-06-12 11:33:00,
2013-06-12 05:43:00,41.0,24.0,-100.00,East,79,8.0,12.0,50,0.00,,,0.00,0.000000,,2013-06-12 11:43:00,
2013-06-12 05:53:00,41.0,24.0,-100.00,East,79,8.0,12.0,50,0.00,,,0.00,0.000000,,2013-06-12 11:53:00,
2013-06-12 06:23:00,42.0,23.0,-100.00,East,96,8.0,12.0,46,0.00,,,0.00,3.000000,,2013-06-12 12:23:00,
2013-06-12 06:33:00,42.0,23.0,-100.00,East,96,8.0,12.0,46,0.00,,,0.00,3.000000,,2013-06-12 12:33:00,
2013-06-12 06:42:00,42.0,23.0,-100.00,East,96,8.0,12.0,46,0.00,,,0.00,3.000000,,2013-06-12 12:42:00,
2013-06-12 06:53:00,42.0,23.0,-100.00,East,96,8.0,12.0,46,0.00,,,0.00,3.000000,,2013-06-12 12:53:00,
2013-06-12 07:22:00,47.0,25.0,-100.00,East,87,9.0,13.0,41,0.00,,,0.00,82.000000,,2013-06-12 13:22:00,
2013-06-12 07:32:00,47.0,25.0,-100.00,East,87,9.0,13.0,41,0.00,,,0.00,82.000000,,2013-06-12 13:32:00,
2013-06-12 07:43:00,47.0,25.0,-100.00,East,87,9.0,13.0,41,0.00,,,0.00,82.000000,,2013-06-12 13:43:00,
2013-06-12 07:53:00,47.0,25.0,-100.00,East,87,9.0,13.0,41,0.00,,,0.00,82.000000,,2013-06-12 13:53:00,
2013-06-12 08:24:00,51.0,30.0,-100.00,East,97,10.0,14.0,45,0.00,,,0.00,265.000000,,2013-06-12 14:24:00,
2013-06-12 08:33:00,51.0,30.0,-100.00,East,97,10.0,14.0,45,0.00,,,0.00,265.000000,,2013-06-12 14:33:00,
2013-06-12 08:43:00,51.0,30.0,-100.00,East,97,10.0,14.0,45,0.00,,,0.00,265.000000,,2013-06-12 14:43:00,
2013-06-12 08:53:00,51.0,30.0,-100.00,East,97,10.0,14.0,45,0.00,,,0.00,265.000000,,2013-06-12 14:53:00,
2013-06-12 09:23:00,59.0,33.0,-100.00,East,96,8.0,13.0,38,0.00,,,0.00,442.000000,,2013-06-12 15:23:00,
2013-06-12 09:33:00,59.0,33.0,-100.00,East,96,8.0,13.0,38,0.00,,,0.00,442.000000,,2013-06-12 15:33:00,
2013-06-12 09:43:00,59.0,33.0,-100.00,East,96,8.0,13.0,38,0.00,,,0.00,442.000000,,2013-06-12 15:43:00,
2013-06-12 09:52:00,59.0,33.0,-100.00,East,96,8.0,13.0,38,0.00,,,0.00,442.000000,,2013-06-12 15:52:00,
2013-06-12 10:22:00,67.0,28.0,-100.00,East,82,6.0,11.0,23,0.00,,,0.00,533.000000,,2013-06-12 16:22:00,
2013-06-12 10:32:00,67.0,28.0,-100.00,East,82,6.0,11.0,23,0.00,,,0.00,533.000000,,2013-06-12 16:32:00,
2013-06-12 10:43:00,67.0,28.0,-100.00,East,82,6.0,11.0,23,0.00,,,0.00,533.000000,,2013-06-12 16:43:00,
2013-06-12 10:52:00,67.0,28.0,-100.00,East,82,6.0,11.0,23,0.00,,,0.00,533.000000,,2013-06-12 16:52:00,
2013-06-12 11:22:00,69.0,29.0,-100.00,SW,228,5.0,12.0,22,0.00,,,0.00,693.000000,,2013-06-12 17:22:00,
2013-06-12 11:33:00,69.0,29.0,-100.00,SW,228,5.0,12.0,22,0.00,,,0.00,693.000000,,2013-06-12 17:33:00,
2013-06-12 11:42:00,69.0,29.0,-100.00,SW,228,5.0,12.0,22,0.00,,,0.00,693.000000,,2013-06-12 17:42:00,
2013-06-12 11:52:00,69.0,29.0,-100.00,SW,228,5.0,12.0,22,0.00,,,0.00,693.000000,,2013-06-12 17:52:00,
2013-06-12 12:22:00,71.0,32.0,-100.00,WSW,258,8.0,12.0,24,0.00,,,0.00,926.000000,,2013-06-12 18:22:00,
2013-06-12 12:32:00,71.0,32.0,-100.00,WSW,258,8.0,12.0,24,0.00,,,0.00,926.000000,,2013-06-12 18:32:00,
2013-06-12 12:43:00,71.0,32.0,-100.00,WSW,258,8.0,12.0,24,0.00,,,0.00,926.000000,,2013-06-12 18:43:00,
2013-06-12 12:53:00,71.0,32.0,-100.00,WSW,258,8.0,12.0,24,0.00,,,0.00,926.000000,,2013-06-12 18:53:00,
2013-06-12 13:22:00,73.0,27.0,-100.00,WSW,256,11.0,19.0,18,0.00,,,0.00,1012.000000,,2013-06-12 19:22:00,
2013-06-12 13:32:00,73.0,27.0,-100.00,WSW,256,11.0,19.0,18,0.00,,,0.00,1012.000000,,2013-06-12 19:32:00,
2013-06-12 13:42:00,73.0,27.0,-100.00,WSW,256,11.0,19.0,18,0.00,,,0.00,1012.000000,,2013-06-12 19:42:00,
2013-06-12 13:52:00,73.0,27.0,-100.00,WSW,256,11.0,19.0,18,0.00,,,0.00,1012.000000,,2013-06-12 19:52:00,
2013-06-12 14:22:00,75.0,26.0,-100.00,West,263,12.0,21.0,16,0.00,,,0.00,994.000000,,2013-06-12 20:22:00,
2013-06-12 14:32:00,75.0,26.0,-100.00,West,263,12.0,21.0,16,0.00,,,0.00,994.000000,,2013-06-12 20:32:00,
2013-06-12 14:42:00,75.0,26.0,-100.00,West,263,12.0,21.0,16,0.00,,,0.00,994.000000,,2013-06-12 20:42:00,
2013-06-12 14:54:00,75.0,26.0,-100.00,West,263,12.0,21.0,16,0.00,,,0.00,994.000000,,2013-06-12 20:54:00,
2013-06-12 15:22:00,76.0,20.0,-100.00,West,262,16.0,28.0,12,0.00,,,0.00,1011.000000,,2013-06-12 21:22:00,
2013-06-12 15:33:00,76.0,20.0,-100.00,West,262,16.0,28.0,12,0.00,,,0.00,1011.000000,,2013-06-12 21:33:00,
2013-06-12 15:43:00,76.0,20.0,-100.00,West,262,16.0,28.0,12,0.00,,,0.00,1011.000000,,2013-06-12 21:43:00,
2013-06-12 15:52:00,76.0,20.0,-100.00,West,262,16.0,28.0,12,0.00,,,0.00,1011.000000,,2013-06-12 21:52:00,
2013-06-12 16:22:00,76.0,18.0,-100.00,West,263,15.0,28.0,11,0.00,,,0.00,936.000000,,2013-06-12 22:22:00,
2013-06-12 16:32:00,76.0,18.0,-100.00,West,263,15.0,28.0,11,0.00,,,0.00,936.000000,,2013-06-12 22:32:00,
2013-06-12 16:43:00,76.0,18.0,-100.00,West,263,15.0,28.0,11,0.00,,,0.00,936.000000,,2013-06-12 22:43:00,
2013-06-12 16:52:00,76.0,18.0,-100.00,West,263,15.0,28.0,11,0.00,,,0.00,936.000000,,2013-06-12 22:52:00,
2013-06-12 17:22:00,75.0,21.0,-100.00,West,269,13.0,24.0,13,0.00,,,0.00,629.000000,,2013-06-12 23:22:00,
2013-06-12 17:32:00,75.0,21.0,-100.00,West,269,13.0,24.0,13,0.00,,,0.00,629.000000,,2013-06-12 23:32:00,
2013-06-12 17:42:00,75.0,21.0,-100.00,West,269,13.0,24.0,13,0.00,,,0.00,629.000000,,2013-06-12 23:42:00,
2013-06-12 17:52:00,75.0,21.0,-100.00,West,269,13.0,24.0,13,0.00,,,0.00,629.000000,,2013-06-12 23:52:00,
2013-06-12 18:22:00,72.0,20.0,-100.00,West,274,12.0,23.0,14,0.00,,,0.00,455.000000,,2013-06-13 00:22:00,
2013-06-12 18:32:00,72.0,20.0,-100.00,West,274,12.0,23.0,14,0.00,,,0.00,455.000000,,2013-06-13 00:32:00,
2013-06-12 18:42:00,72.0,20.0,-100.00,West,274,12.0,23.0,14,0.00,,,0.00,455.000000,,2013-06-13 00:42:00,
2013-06-12 18:52:00,72.0,20.0,-100.00,West,274,12.0,23.0,14,0.00,,,0.00,455.000000,,2013-06-13 00:52:00,
2013-06-12 19:22:00,69.0,21.0,-100.00,West,278,9.0,17.0,16,0.00,,,0.00,153.000000,,2013-06-13 01:22:00,
2013-06-12 19:32:00,69.0,21.0,-100.00,West,278,9.0,17.0,16,0.00,,,0.00,153.000000,,2013-06-13 01:32:00,
2013-06-12 19:43:00,69.0,21.0,-100.00,West,278,9.0,17.0,16,0.00,,,0.00,153.000000,,2013-06-13 01:43:00,
2013-06-12 19:53:00,69.0,21.0,-100.00,West,278,9.0,17.0,16,0.00,,,0.00,153.000000,,2013-06-13 01:53:00,
2013-06-12 20:22:00,66.0,21.0,-100.00,WNW,291,4.0,14.0,18,0.00,,,0.00,66.000000,,2013-06-13 02:22:00,
2013-06-12 20:33:00,66.0,21.0,-100.00,WNW,291,4.0,14.0,18,0.00,,,0.00,66.000000,,2013-06-13 02:33:00,
2013-06-12 20:43:00,66.0,21.0,-100.00,WNW,291,4.0,14.0,18,0.00,,,0.00,66.000000,,2013-06-13 02:43:00,
2013-06-12 20:52:00,66.0,21.0,-100.00,WNW,291,4.0,14.0,18,0.00,,,0.00,66.000000,,2013-06-13 02:52:00,
2013-06-12 21:22:00,64.0,20.0,-100.00,NNW,329,5.0,8.0,18,0.00,,,0.00,11.000000,,2013-06-13 03:22:00,
2013-06-12 21:33:00,64.0,20.0,-100.00,NNW,329,5.0,8.0,18,0.00,,,0.00,11.000000,,2013-06-13 03:33:00,
2013-06-12 21:42:00,64.0,20.0,-100.00,NNW,329,5.0,8.0,18,0.00,,,0.00,11.000000,,2013-06-13 03:42:00,
2013-06-12 21:52:00,64.0,20.0,-100.00,NNW,329,5.0,8.0,18,0.00,,,0.00,11.000000,,2013-06-13 03:52:00,
2013-06-12 22:22:00,62.0,22.0,-100.00,NE,52,4.0,6.0,21,0.00,,,0.00,0.000000,,2013-06-13 04:22:00,
2013-06-12 22:32:00,62.0,22.0,-100.00,NE,52,4.0,6.0,21,0.00,,,0.00,0.000000,,2013-06-13 04:32:00,
2013-06-12 22:43:00,62.0,22.0,-100.00,NE,52,4.0,6.0,21,0.00,,,0.00,0.000000,,2013-06-13 04:43:00,
2013-06-12 22:53:00,62.0,22.0,-100.00,NE,52,4.0,6.0,21,0.00,,,0.00,0.000000,,2013-06-13 04:53:00,
2013-06-12 23:24:00,57.0,25.0,-100.00,ENE,67,7.0,9.0,29,0.00,,,0.00,0.000000,,2013-06-13 05:24:00,
2013-06-12 23:33:00,57.0,25.0,-100.00,ENE,67,7.0,9.0,29,0.00,,,0.00,0.000000,,2013-06-13 05:33:00,
2013-06-12 23:42:00,57.0,25.0,-100.00,ENE,67,7.0,9.0,29,0.00,,,0.00,0.000000,,2013-06-13 05:42:00,
2013-06-12 23:53:00,57.0,25.0,-100.00,ENE,67,7.0,9.0,29,0.00,,,0.00,0.000000,,2013-06-13 05:53:00,